sensor_id;sensor_type;location;lat;lon;timestamp;pressure;altitude;pressure_sealevel;temperature;humidity
62800;BME280;48842;51.046;13.796;2023-04-15T00:01:58;99226.84;;;9.82;nan
62800;BME280;48842;51.046;13.796;2023-04-15T00:04:24;99219.84;;;9.85;nan
62800;BME280;48842;51.046;13.796;2023-04-15T00:06:50;99215.47;;;9.87;nan
62800;BME280;48842;51.046;13.796;2023-04-15T00:09:17;99218.91;;;9.89;nan
62800;BME280;48842;51.046;13.796;2023-04-15T00:11:43;99214.56;;;9.87;nan
62800;BME280;48842;51.046;13.796;2023-04-15T00:14:08;99210.28;;;9.84;nan
62800;BME280;48842;51.046;13.796;2023-04-15T00:16:33;99212.03;;;9.82;nan
62800;BME280;48842;51.046;13.796;2023-04-15T00:18:59;99214.63;;;9.82;nan
62800;BME280;48842;51.046;13.796;2023-04-15T00:21:24;99216.34;;;9.86;nan
62800;BME280;48842;51.046;13.796;2023-04-15T00:23:49;99209.31;;;9.93;nan
62800;BME280;48842;51.046;13.796;2023-04-15T00:26:17;99203.09;;;9.99;nan
62800;BME280;48842;51.046;13.796;2023-04-15T00:28:43;99203.09;;;9.99;nan
62800;BME280;48842;51.046;13.796;2023-04-15T00:31:09;99200.47;;;9.99;nan
62800;BME280;48842;51.046;13.796;2023-04-15T00:33:35;99201.38;;;9.99;nan
62800;BME280;48842;51.046;13.796;2023-04-15T00:36:00;99197.00;;;10.00;nan
62800;BME280;48842;51.046;13.796;2023-04-15T00:38:26;99204.81;;;10.03;nan
62800;BME280;48842;51.046;13.796;2023-04-15T00:40:52;99201.34;;;10.01;nan
62800;BME280;48842;51.046;13.796;2023-04-15T00:43:17;99190.97;;;9.94;nan
62800;BME280;48842;51.046;13.796;2023-04-15T00:45:43;99190.13;;;9.91;nan
62800;BME280;48842;51.046;13.796;2023-04-15T00:48:08;99197.13;;;9.90;nan
62800;BME280;48842;51.046;13.796;2023-04-15T00:50:35;99196.22;;;9.91;nan
62800;BME280;48842;51.046;13.796;2023-04-15T00:53:00;99196.19;;;9.94;nan
62800;BME280;48842;51.046;13.796;2023-04-15T00:55:25;99199.66;;;9.96;nan
62800;BME280;48842;51.046;13.796;2023-04-15T00:57:51;99195.25;;;9.99;nan
62800;BME280;48842;51.046;13.796;2023-04-15T01:00:16;99184.78;;;10.00;nan
62800;BME280;48842;51.046;13.796;2023-04-15T01:02:42;99182.16;;;10.02;nan
62800;BME280;48842;51.046;13.796;2023-04-15T01:05:07;99177.75;;;10.05;nan
62800;BME280;48842;51.046;13.796;2023-04-15T01:07:33;99180.34;;;10.07;nan
62800;BME280;48842;51.046;13.796;2023-04-15T01:09:58;99175.09;;;10.07;nan
62800;BME280;48842;51.046;13.796;2023-04-15T01:12:26;99187.34;;;10.05;nan
62800;BME280;48842;51.046;13.796;2023-04-15T01:14:54;99176.88;;;10.06;nan
62800;BME280;48842;51.046;13.796;2023-04-15T01:17:19;99175.97;;;10.07;nan
62800;BME280;48842;51.046;13.796;2023-04-15T01:19:45;99178.59;;;10.06;nan
62800;BME280;48842;51.046;13.796;2023-04-15T01:22:10;99167.28;;;10.05;nan
62800;BME280;48842;51.046;13.796;2023-04-15T01:24:36;99171.66;;;10.05;nan
62800;BME280;48842;51.046;13.796;2023-04-15T01:27:01;99173.38;;;10.06;nan
62800;BME280;48842;51.046;13.796;2023-04-15T01:29:30;99170.78;;;10.04;nan
62800;BME280;48842;51.046;13.796;2023-04-15T01:31:55;99167.34;;;10.01;nan
62800;BME280;48842;51.046;13.796;2023-04-15T01:34:21;99156.94;;;9.98;nan
62800;BME280;48842;51.046;13.796;2023-04-15T01:36:47;99161.28;;;9.95;nan
62800;BME280;48842;51.046;13.796;2023-04-15T01:39:12;99161.34;;;9.92;nan
62800;BME280;48842;51.046;13.796;2023-04-15T01:41:37;99155.22;;;9.93;nan
62800;BME280;48842;51.046;13.796;2023-04-15T01:44:04;99163.03;;;9.96;nan
62800;BME280;48842;51.046;13.796;2023-04-15T01:46:31;99165.59;;;10.00;nan
62800;BME280;48842;51.046;13.796;2023-04-15T01:48:56;99168.19;;;10.03;nan
62800;BME280;48842;51.046;13.796;2023-04-15T01:51:21;99153.38;;;10.02;nan
62800;BME280;48842;51.046;13.796;2023-04-15T01:53:47;99156.03;;;9.99;nan
62800;BME280;48842;51.046;13.796;2023-04-15T01:56:12;99157.81;;;9.96;nan
62800;BME280;48842;51.046;13.796;2023-04-15T01:58:38;99151.72;;;9.96;nan
62800;BME280;48842;51.046;13.796;2023-04-15T02:01:04;99149.13;;;9.94;nan
62800;BME280;48842;51.046;13.796;2023-04-15T02:03:29;99142.97;;;9.95;nan
62800;BME280;48842;51.046;13.796;2023-04-15T02:05:54;99142.97;;;9.97;nan
62800;BME280;48842;51.046;13.796;2023-04-15T02:08:20;99149.06;;;9.98;nan
62800;BME280;48842;51.046;13.796;2023-04-15T02:10:46;99140.34;;;9.97;nan
62800;BME280;48842;51.046;13.796;2023-04-15T02:13:11;99134.28;;;9.95;nan
62800;BME280;48842;51.046;13.796;2023-04-15T02:15:36;99139.50;;;9.96;nan
62800;BME280;48842;51.046;13.796;2023-04-15T02:18:03;99129.91;;;9.95;nan
62800;BME280;48842;51.046;13.796;2023-04-15T02:20:28;99129.03;;;9.96;nan
62800;BME280;48842;51.046;13.796;2023-04-15T02:22:55;99133.38;;;9.98;nan
62800;BME280;48842;51.046;13.796;2023-04-15T02:25:20;99125.59;;;9.94;nan
62800;BME280;48842;51.046;13.796;2023-04-15T02:27:46;99134.28;;;9.95;nan
62800;BME280;48842;51.046;13.796;2023-04-15T02:30:11;99131.66;;;9.96;nan
62800;BME280;48842;51.046;13.796;2023-04-15T02:32:36;99126.41;;;9.96;nan
62800;BME280;48842;51.046;13.796;2023-04-15T02:35:06;99127.25;;;9.97;nan
62800;BME280;48842;51.046;13.796;2023-04-15T02:37:35;99129.03;;;9.96;nan
62800;BME280;48842;51.046;13.796;2023-04-15T02:40:06;99122.00;;;9.99;nan
62800;BME280;48842;51.046;13.796;2023-04-15T02:42:32;99127.22;;;10.00;nan
62800;BME280;48842;51.046;13.796;2023-04-15T02:44:57;99128.94;;;10.03;nan
62800;BME280;48842;51.046;13.796;2023-04-15T02:47:22;99131.56;;;10.03;nan
62800;BME280;48842;51.046;13.796;2023-04-15T02:49:47;99147.22;;;10.06;nan
62800;BME280;48842;51.046;13.796;2023-04-15T02:52:13;99136.69;;;10.09;nan
62800;BME280;48842;51.046;13.796;2023-04-15T02:54:38;99131.44;;;10.12;nan
62800;BME280;48842;51.046;13.796;2023-04-15T02:57:03;99132.31;;;10.11;nan
62800;BME280;48842;51.046;13.796;2023-04-15T02:59:30;99126.22;;;10.12;nan
62800;BME280;48842;51.046;13.796;2023-04-15T03:01:56;99121.84;;;10.11;nan
62800;BME280;48842;51.046;13.796;2023-04-15T03:04:24;99121.84;;;10.11;nan
62800;BME280;48842;51.046;13.796;2023-04-15T03:06:50;99121.88;;;10.09;nan
62800;BME280;48842;51.046;13.796;2023-04-15T03:09:15;99116.69;;;10.08;nan
62800;BME280;48842;51.046;13.796;2023-04-15T03:11:40;99119.34;;;10.05;nan
62800;BME280;48842;51.046;13.796;2023-04-15T03:14:06;99122.84;;;10.04;nan
62800;BME280;48842;51.046;13.796;2023-04-15T03:16:31;99121.97;;;10.03;nan
62800;BME280;48842;51.046;13.796;2023-04-15T03:18:56;99112.38;;;10.04;nan
62800;BME280;48842;51.046;13.796;2023-04-15T03:21:21;99113.25;;;10.03;nan
62800;BME280;48842;51.046;13.796;2023-04-15T03:23:47;99113.22;;;10.04;nan
62800;BME280;48842;51.046;13.796;2023-04-15T03:26:26;99114.97;;;10.04;nan
62800;BME280;48842;51.046;13.796;2023-04-15T03:28:51;99108.88;;;10.05;nan
62800;BME280;48842;51.046;13.796;2023-04-15T03:31:16;99101.91;;;10.04;nan
62800;BME280;48842;51.046;13.796;2023-04-15T03:33:42;99102.78;;;10.03;nan
62800;BME280;48842;51.046;13.796;2023-04-15T03:36:07;99105.44;;;10.00;nan
62800;BME280;48842;51.046;13.796;2023-04-15T03:38:32;99110.66;;;10.00;nan
62800;BME280;48842;51.046;13.796;2023-04-15T03:40:57;99088.88;;;10.01;nan
62800;BME280;48842;51.046;13.796;2023-04-15T03:43:23;99097.53;;;10.03;nan
62800;BME280;48842;51.046;13.796;2023-04-15T03:45:48;99101.06;;;10.00;nan
62800;BME280;48842;51.046;13.796;2023-04-15T03:48:13;99101.06;;;10.02;nan
62800;BME280;48842;51.046;13.796;2023-04-15T03:50:38;99101.91;;;10.04;nan
62800;BME280;48842;51.046;13.796;2023-04-15T03:53:04;99093.16;;;10.06;nan
62800;BME280;48842;51.046;13.796;2023-04-15T03:55:29;99091.38;;;10.07;nan
62800;BME280;48842;51.046;13.796;2023-04-15T03:57:54;99093.09;;;10.09;nan
62800;BME280;48842;51.046;13.796;2023-04-15T04:00:19;99093.13;;;10.08;nan
62800;BME280;48842;51.046;13.796;2023-04-15T04:02:45;99081.75;;;10.09;nan
62800;BME280;48842;51.046;13.796;2023-04-15T04:05:10;99092.22;;;10.09;nan
62800;BME280;48842;51.046;13.796;2023-04-15T04:07:35;99100.06;;;10.09;nan
62800;BME280;48842;51.046;13.796;2023-04-15T04:10:01;99092.25;;;10.07;nan
62800;BME280;48842;51.046;13.796;2023-04-15T04:12:27;99095.75;;;10.06;nan
62800;BME280;48842;51.046;13.796;2023-04-15T04:14:52;99093.19;;;10.05;nan
62800;BME280;48842;51.046;13.796;2023-04-15T04:17:18;99098.41;;;10.05;nan
62800;BME280;48842;51.046;13.796;2023-04-15T04:19:43;99086.19;;;10.04;nan
62800;BME280;48842;51.046;13.796;2023-04-15T04:22:08;99095.78;;;10.05;nan
62800;BME280;48842;51.046;13.796;2023-04-15T04:24:34;99096.56;;;10.10;nan
62800;BME280;48842;51.046;13.796;2023-04-15T04:26:59;99100.94;;;10.09;nan
62800;BME280;48842;51.046;13.796;2023-04-15T04:29:24;99093.09;;;10.11;nan
62800;BME280;48842;51.046;13.796;2023-04-15T04:31:50;99098.31;;;10.11;nan
62800;BME280;48842;51.046;13.796;2023-04-15T04:34:15;99100.06;;;10.12;nan
62800;BME280;48842;51.046;13.796;2023-04-15T04:36:40;99107.00;;;10.13;nan
62800;BME280;48842;51.046;13.796;2023-04-15T04:39:07;99108.72;;;10.14;nan
62800;BME280;48842;51.046;13.796;2023-04-15T04:41:32;99104.31;;;10.16;nan
62800;BME280;48842;51.046;13.796;2023-04-15T04:43:58;99103.44;;;10.17;nan
62800;BME280;48842;51.046;13.796;2023-04-15T04:46:23;99113.00;;;10.20;nan
62800;BME280;48842;51.046;13.796;2023-04-15T04:48:49;99109.53;;;10.18;nan
62800;BME280;48842;51.046;13.796;2023-04-15T04:51:14;99122.63;;;10.16;nan
62800;BME280;48842;51.046;13.796;2023-04-15T04:53:40;99133.09;;;10.18;nan
62800;BME280;48842;51.046;13.796;2023-04-15T04:56:05;99128.69;;;10.21;nan
62800;BME280;48842;51.046;13.796;2023-04-15T04:58:30;99122.53;;;10.25;nan
62800;BME280;48842;51.046;13.796;2023-04-15T05:00:55;99127.75;;;10.25;nan
62800;BME280;48842;51.046;13.796;2023-04-15T05:03:21;99128.66;;;10.24;nan
62800;BME280;48842;51.046;13.796;2023-04-15T05:05:46;99128.63;;;10.26;nan
62800;BME280;48842;51.046;13.796;2023-04-15T05:08:13;99118.13;;;10.27;nan
62800;BME280;48842;51.046;13.796;2023-04-15T05:10:38;99124.25;;;10.28;nan
62800;BME280;48842;51.046;13.796;2023-04-15T05:13:03;99132.03;;;10.31;nan
62800;BME280;48842;51.046;13.796;2023-04-15T05:15:29;99128.53;;;10.32;nan
62800;BME280;48842;51.046;13.796;2023-04-15T05:17:54;99132.03;;;10.33;nan
62800;BME280;48842;51.046;13.796;2023-04-15T05:20:19;99131.16;;;10.30;nan
62800;BME280;48842;51.046;13.796;2023-04-15T05:22:44;99143.38;;;10.31;nan
62800;BME280;48842;51.046;13.796;2023-04-15T05:25:10;99138.09;;;10.36;nan
62800;BME280;48842;51.046;13.796;2023-04-15T05:27:35;99135.38;;;10.42;nan
62800;BME280;48842;51.046;13.796;2023-04-15T05:30:00;99133.53;;;10.49;nan
62800;BME280;48842;51.046;13.796;2023-04-15T05:32:26;99128.25;;;10.52;nan
62800;BME280;48842;51.046;13.796;2023-04-15T05:34:51;99133.44;;;10.55;nan
62800;BME280;48842;51.046;13.796;2023-04-15T05:37:17;99135.16;;;10.58;nan
62800;BME280;48842;51.046;13.796;2023-04-15T05:39:44;99135.06;;;10.62;nan
62800;BME280;48842;51.046;13.796;2023-04-15T05:42:10;99133.28;;;10.66;nan
62800;BME280;48842;51.046;13.796;2023-04-15T05:44:35;99141.94;;;10.70;nan
62800;BME280;48842;51.046;13.796;2023-04-15T05:47:00;99144.50;;;10.74;nan
62800;BME280;48842;51.046;13.796;2023-04-15T05:49:27;99149.66;;;10.79;nan
62800;BME280;48842;51.046;13.796;2023-04-15T05:51:52;99153.97;;;10.81;nan
62800;BME280;48842;51.046;13.796;2023-04-15T05:54:18;99159.16;;;10.85;nan
62800;BME280;48842;51.046;13.796;2023-04-15T05:56:43;99160.84;;;10.89;nan
62800;BME280;48842;51.046;13.796;2023-04-15T05:59:08;99161.69;;;10.92;nan
62800;BME280;48842;51.046;13.796;2023-04-15T06:01:33;99163.31;;;10.96;nan
62800;BME280;48842;51.046;13.796;2023-04-15T06:03:59;99168.53;;;10.99;nan
62800;BME280;48842;51.046;13.796;2023-04-15T06:06:24;99166.75;;;11.02;nan
62800;BME280;48842;51.046;13.796;2023-04-15T06:08:51;99168.50;;;11.03;nan
62800;BME280;48842;51.046;13.796;2023-04-15T06:11:16;99171.94;;;11.05;nan
62800;BME280;48842;51.046;13.796;2023-04-15T06:13:41;99171.91;;;11.06;nan
62800;BME280;48842;51.046;13.796;2023-04-15T06:16:07;99171.00;;;11.09;nan
62800;BME280;48842;51.046;13.796;2023-04-15T06:18:32;99177.06;;;11.11;nan
62800;BME280;48842;51.046;13.796;2023-04-15T06:20:57;99170.97;;;11.10;nan
62800;BME280;48842;51.046;13.796;2023-04-15T06:23:23;99177.06;;;11.11;nan
62800;BME280;48842;51.046;13.796;2023-04-15T06:25:48;99176.22;;;11.10;nan
62800;BME280;48842;51.046;13.796;2023-04-15T06:28:13;99177.91;;;11.13;nan
62800;BME280;48842;51.046;13.796;2023-04-15T06:30:39;99177.91;;;11.14;nan
62800;BME280;48842;51.046;13.796;2023-04-15T06:33:04;99182.22;;;11.17;nan
62800;BME280;48842;51.046;13.796;2023-04-15T06:35:30;99182.16;;;11.20;nan
62800;BME280;48842;51.046;13.796;2023-04-15T06:37:55;99187.38;;;11.22;nan
62800;BME280;48842;51.046;13.796;2023-04-15T06:40:21;99189.06;;;11.24;nan
62800;BME280;48842;51.046;13.796;2023-04-15T06:42:46;99188.13;;;11.28;nan
62800;BME280;48842;51.046;13.796;2023-04-15T06:45:11;99196.81;;;11.32;nan
62800;BME280;48842;51.046;13.796;2023-04-15T06:47:37;99189.75;;;11.35;nan
62800;BME280;48842;51.046;13.796;2023-04-15T06:50:02;99189.69;;;11.39;nan
62800;BME280;48842;51.046;13.796;2023-04-15T06:52:28;99183.53;;;11.41;nan
62800;BME280;48842;51.046;13.796;2023-04-15T06:54:53;99190.47;;;11.44;nan
62800;BME280;48842;51.046;13.796;2023-04-15T06:57:18;99189.59;;;11.45;nan
62800;BME280;48842;51.046;13.796;2023-04-15T06:59:43;99195.63;;;11.48;nan
62800;BME280;48842;51.046;13.796;2023-04-15T07:02:11;99193.81;;;11.50;nan
62800;BME280;48842;51.046;13.796;2023-04-15T07:04:37;99200.78;;;11.53;nan
62800;BME280;48842;51.046;13.796;2023-04-15T07:07:02;99206.84;;;11.57;nan
62800;BME280;48842;51.046;13.796;2023-04-15T07:09:27;99204.19;;;11.58;nan
62800;BME280;48842;51.046;13.796;2023-04-15T07:11:52;99207.66;;;11.60;nan
62800;BME280;48842;51.046;13.796;2023-04-15T07:14:18;99210.22;;;11.63;nan
62800;BME280;48842;51.046;13.796;2023-04-15T07:16:43;99210.22;;;11.63;nan
62800;BME280;48842;51.046;13.796;2023-04-15T07:19:08;99218.94;;;11.65;nan
62800;BME280;48842;51.046;13.796;2023-04-15T07:21:33;99222.41;;;11.66;nan
62800;BME280;48842;51.046;13.796;2023-04-15T07:23:59;99219.75;;;11.67;nan
62800;BME280;48842;51.046;13.796;2023-04-15T07:26:24;99227.56;;;11.70;nan
62800;BME280;48842;51.046;13.796;2023-04-15T07:28:49;99233.59;;;11.76;nan
62800;BME280;48842;51.046;13.796;2023-04-15T07:31:15;99230.03;;;11.78;nan
62800;BME280;48842;51.046;13.796;2023-04-15T07:33:41;99229.97;;;11.83;nan
62800;BME280;48842;51.046;13.796;2023-04-15T07:36:06;99228.06;;;11.90;nan
62800;BME280;48842;51.046;13.796;2023-04-15T07:38:31;99225.34;;;11.96;nan
62800;BME280;48842;51.046;13.796;2023-04-15T07:40:57;99235.75;;;12.02;nan
62800;BME280;48842;51.046;13.796;2023-04-15T07:43:23;99240.03;;;12.04;nan
62800;BME280;48842;51.046;13.796;2023-04-15T07:45:48;99243.53;;;12.07;nan
62800;BME280;48842;51.046;13.796;2023-04-15T07:48:13;99232.97;;;12.10;nan
62800;BME280;48842;51.046;13.796;2023-04-15T07:50:38;99235.50;;;12.14;nan
62800;BME280;48842;51.046;13.796;2023-04-15T07:53:03;99237.94;;;12.22;nan
62800;BME280;48842;51.046;13.796;2023-04-15T07:55:30;99242.13;;;12.31;nan
62800;BME280;48842;51.046;13.796;2023-04-15T07:57:55;99238.44;;;12.39;nan
62800;BME280;48842;51.046;13.796;2023-04-15T08:00:21;99232.16;;;12.47;nan
62800;BME280;48842;51.046;13.796;2023-04-15T08:02:46;99243.41;;;12.53;nan
62800;BME280;48842;51.046;13.796;2023-04-15T08:05:12;99258.97;;;12.63;nan
62800;BME280;48842;51.046;13.796;2023-04-15T08:07:39;99254.50;;;12.68;nan
62800;BME280;48842;51.046;13.796;2023-04-15T08:10:05;99261.38;;;12.73;nan
62800;BME280;48842;51.046;13.796;2023-04-15T08:12:30;99263.03;;;12.78;nan
62800;BME280;48842;51.046;13.796;2023-04-15T08:14:56;99269.16;;;12.78;nan
62800;BME280;48842;51.046;13.796;2023-04-15T08:17:21;99262.13;;;12.79;nan
62800;BME280;48842;51.046;13.796;2023-04-15T08:19:46;99269.94;;;12.82;nan
62800;BME280;48842;51.046;13.796;2023-04-15T08:22:13;99268.06;;;12.87;nan
62800;BME280;48842;51.046;13.796;2023-04-15T08:24:38;99270.59;;;12.91;nan
62800;BME280;48842;51.046;13.796;2023-04-15T08:27:03;99276.63;;;12.97;nan
62800;BME280;48842;51.046;13.796;2023-04-15T08:29:30;99271.31;;;12.98;nan
62800;BME280;48842;51.046;13.796;2023-04-15T08:31:55;99270.41;;;12.99;nan
62800;BME280;48842;51.046;13.796;2023-04-15T08:34:20;99272.19;;;12.99;nan
62800;BME280;48842;51.046;13.796;2023-04-15T08:36:46;99274.78;;;13.00;nan
62800;BME280;48842;51.046;13.796;2023-04-15T08:39:11;99273.84;;;13.03;nan
62800;BME280;48842;51.046;13.796;2023-04-15T08:41:45;99268.59;;;13.03;nan
62800;BME280;48842;51.046;13.796;2023-04-15T08:44:12;99283.47;;;13.02;nan
62800;BME280;48842;51.046;13.796;2023-04-15T08:46:38;99285.28;;;13.00;nan
62800;BME280;48842;51.046;13.796;2023-04-15T08:49:04;99292.41;;;12.97;nan
62800;BME280;48842;51.046;13.796;2023-04-15T08:51:30;99299.47;;;12.93;nan
62800;BME280;48842;51.046;13.796;2023-04-15T08:53:55;99295.28;;;12.84;nan
62800;BME280;48842;51.046;13.796;2023-04-15T08:56:24;99296.28;;;12.79;nan
62800;BME280;48842;51.046;13.796;2023-04-15T08:58:50;99298.09;;;12.77;nan
62800;BME280;48842;51.046;13.796;2023-04-15T09:01:16;99302.47;;;12.78;nan
62800;BME280;48842;51.046;13.796;2023-04-15T09:03:42;99300.69;;;12.78;nan
62800;BME280;48842;51.046;13.796;2023-04-15T09:06:08;99307.69;;;12.79;nan
62800;BME280;48842;51.046;13.796;2023-04-15T09:08:33;99305.88;;;12.81;nan
62800;BME280;48842;51.046;13.796;2023-04-15T09:11:01;99311.97;;;12.82;nan
62800;BME280;48842;51.046;13.796;2023-04-15T09:13:26;99309.31;;;12.83;nan
62800;BME280;48842;51.046;13.796;2023-04-15T09:15:52;99312.81;;;12.84;nan
62800;BME280;48842;51.046;13.796;2023-04-15T09:18:31;99315.53;;;12.81;nan
62800;BME280;48842;51.046;13.796;2023-04-15T09:21:23;99319.03;;;12.80;nan
62800;BME280;48842;51.046;13.796;2023-04-15T09:23:59;99318.22;;;12.76;nan
62800;BME280;48842;51.046;13.796;2023-04-15T09:26:35;99324.34;;;12.78;nan
62800;BME280;48842;51.046;13.796;2023-04-15T09:29:08;99322.56;;;12.79;nan
62800;BME280;48842;51.046;13.796;2023-04-15T09:31:35;99324.28;;;12.80;nan
62800;BME280;48842;51.046;13.796;2023-04-15T09:34:01;99326.03;;;12.81;nan
62800;BME280;48842;51.046;13.796;2023-04-15T09:36:27;99330.38;;;12.82;nan
62800;BME280;48842;51.046;13.796;2023-04-15T09:38:56;99334.75;;;12.83;nan
62800;BME280;48842;51.046;13.796;2023-04-15T09:41:23;99345.25;;;12.83;nan
62800;BME280;48842;51.046;13.796;2023-04-15T09:43:48;99350.56;;;12.80;nan
62800;BME280;48842;51.046;13.796;2023-04-15T09:46:14;99350.72;;;12.73;nan
62800;BME280;48842;51.046;13.796;2023-04-15T09:48:39;99352.53;;;12.70;nan
62800;BME280;48842;51.046;13.796;2023-04-15T09:51:04;99354.38;;;12.66;nan
62800;BME280;48842;51.046;13.796;2023-04-15T09:53:33;99353.50;;;12.64;nan
62800;BME280;48842;51.046;13.796;2023-04-15T09:55:59;99351.69;;;12.68;nan
62800;BME280;48842;51.046;13.796;2023-04-15T09:58:31;99358.63;;;12.72;nan
62800;BME280;48842;51.046;13.796;2023-04-15T10:00:58;99356.88;;;12.71;nan
62800;BME280;48842;51.046;13.796;2023-04-15T10:03:32;99361.28;;;12.70;nan
62800;BME280;48842;51.046;13.796;2023-04-15T10:05:59;99361.28;;;12.70;nan
62800;BME280;48842;51.046;13.796;2023-04-15T10:08:27;99371.81;;;12.70;nan
62800;BME280;48842;51.046;13.796;2023-04-15T10:10:53;99369.22;;;12.69;nan
62800;BME280;48842;51.046;13.796;2023-04-15T10:13:24;99374.47;;;12.67;nan
62800;BME280;48842;51.046;13.796;2023-04-15T10:16:04;99375.44;;;12.63;nan
62800;BME280;48842;51.046;13.796;2023-04-15T10:18:34;99367.63;;;12.58;nan
62800;BME280;48842;51.046;13.796;2023-04-15T10:21:01;99367.63;;;12.58;nan
62800;BME280;48842;51.046;13.796;2023-04-15T10:23:27;99374.63;;;12.60;nan
62800;BME280;48842;51.046;13.796;2023-04-15T10:25:53;99381.66;;;12.59;nan
62800;BME280;48842;51.046;13.796;2023-04-15T10:28:19;99378.13;;;12.60;nan
62800;BME280;48842;51.046;13.796;2023-04-15T10:30:44;99381.59;;;12.62;nan
62800;BME280;48842;51.046;13.796;2023-04-15T10:33:12;99381.56;;;12.64;nan
62800;BME280;48842;51.046;13.796;2023-04-15T10:35:38;99381.53;;;12.65;nan
62800;BME280;48842;51.046;13.796;2023-04-15T10:41:26;99377.09;;;12.67;nan
62800;BME280;48842;51.046;13.796;2023-04-15T10:44:01;99381.44;;;12.70;nan
62800;BME280;48842;51.046;13.796;2023-04-15T10:46:36;99384.78;;;12.78;nan
62800;BME280;48842;51.046;13.796;2023-04-15T10:49:09;99388.16;;;12.83;nan
62800;BME280;48842;51.046;13.796;2023-04-15T10:51:37;99383.66;;;12.90;nan
62800;BME280;48842;51.046;13.796;2023-04-15T10:54:08;99386.91;;;13.01;nan
62800;BME280;48842;51.046;13.796;2023-04-15T10:56:33;99391.13;;;13.10;nan
62800;BME280;48842;51.046;13.796;2023-04-15T10:58:59;99391.78;;;13.18;nan
62800;BME280;48842;51.046;13.796;2023-04-15T11:01:49;99391.63;;;13.26;nan
62800;BME280;48842;51.046;13.796;2023-04-15T11:04:50;99393.28;;;13.32;nan
62800;BME280;48842;51.046;13.796;2023-04-15T11:07:49;99396.69;;;13.37;nan
62800;BME280;48842;51.046;13.796;2023-04-15T11:12:46;99401.69;;;13.48;nan
62800;BME280;48842;51.046;13.796;2023-04-15T11:15:31;99404.41;;;13.43;nan
62800;BME280;48842;51.046;13.796;2023-04-15T11:17:59;99409.72;;;13.41;nan
62800;BME280;48842;51.046;13.796;2023-04-15T11:20:32;99414.16;;;13.39;nan
62800;BME280;48842;51.046;13.796;2023-04-15T11:22:58;99414.16;;;13.39;nan
62800;BME280;48842;51.046;13.796;2023-04-15T11:25:24;99414.16;;;13.39;nan
62800;BME280;48842;51.046;13.796;2023-04-15T11:27:51;99416.81;;;13.38;nan
62800;BME280;48842;51.046;13.796;2023-04-15T11:30:23;99419.50;;;13.36;nan
62800;BME280;48842;51.046;13.796;2023-04-15T11:32:49;99425.56;;;13.38;nan
62800;BME280;48842;51.046;13.796;2023-04-15T11:35:16;99428.97;;;13.43;nan
62800;BME280;48842;51.046;13.796;2023-04-15T11:37:42;99427.16;;;13.46;nan
62800;BME280;48842;51.046;13.796;2023-04-15T11:40:08;99430.66;;;13.46;nan
62800;BME280;48842;51.046;13.796;2023-04-15T11:42:33;99433.31;;;13.44;nan
62800;BME280;48842;51.046;13.796;2023-04-15T11:45:14;99433.31;;;13.44;nan
62800;BME280;48842;51.046;13.796;2023-04-15T11:47:41;99428.91;;;13.47;nan
62800;BME280;48842;51.046;13.796;2023-04-15T11:50:17;99437.59;;;13.50;nan
62800;BME280;48842;51.046;13.796;2023-04-15T11:52:56;99438.38;;;13.54;nan
62800;BME280;48842;51.046;13.796;2023-04-15T11:55:22;99442.69;;;13.56;nan
62800;BME280;48842;51.046;13.796;2023-04-15T11:57:49;99440.03;;;13.58;nan
62800;BME280;48842;51.046;13.796;2023-04-15T12:00:15;99447.97;;;13.56;nan
62800;BME280;48842;51.046;13.796;2023-04-15T12:02:41;99450.59;;;13.56;nan
62800;BME280;48842;51.046;13.796;2023-04-15T12:05:07;99454.09;;;13.57;nan
62800;BME280;48842;51.046;13.796;2023-04-15T12:07:33;99457.56;;;13.59;nan
62800;BME280;48842;51.046;13.796;2023-04-15T12:09:58;99463.66;;;13.61;nan
62800;BME280;48842;51.046;13.796;2023-04-15T12:12:27;99460.13;;;13.62;nan
62800;BME280;48842;51.046;13.796;2023-04-15T12:14:55;99460.03;;;13.65;nan
62800;BME280;48842;51.046;13.796;2023-04-15T12:17:22;99464.38;;;13.68;nan
62800;BME280;48842;51.046;13.796;2023-04-15T12:19:47;99472.22;;;13.69;nan
62800;BME280;48842;51.046;13.796;2023-04-15T12:22:15;99467.81;;;13.71;nan
62800;BME280;48842;51.046;13.796;2023-04-15T12:24:42;99471.22;;;13.75;nan
62800;BME280;48842;51.046;13.796;2023-04-15T12:27:14;99476.41;;;13.78;nan
62800;BME280;48842;51.046;13.796;2023-04-15T12:29:40;99472.78;;;13.84;nan
62800;BME280;48842;51.046;13.796;2023-04-15T12:32:08;99477.97;;;13.87;nan
62800;BME280;48842;51.046;13.796;2023-04-15T12:34:42;99478.91;;;13.84;nan
62800;BME280;48842;51.046;13.796;2023-04-15T12:37:08;99480.72;;;13.82;nan
62800;BME280;48842;51.046;13.796;2023-04-15T12:39:36;99490.38;;;13.82;nan
62800;BME280;48842;51.046;13.796;2023-04-15T12:42:03;99488.66;;;13.81;nan
62800;BME280;48842;51.046;13.796;2023-04-15T12:44:29;99492.09;;;13.83;nan
62800;BME280;48842;51.046;13.796;2023-04-15T12:46:55;99502.59;;;13.86;nan
62800;BME280;48842;51.046;13.796;2023-04-15T12:49:21;99486.75;;;13.87;nan
62800;BME280;48842;51.046;13.796;2023-04-15T12:51:57;99500.72;;;13.89;nan
62800;BME280;48842;51.046;13.796;2023-04-15T12:54:26;99501.50;;;13.94;nan
62800;BME280;48842;51.046;13.796;2023-04-15T12:56:52;99501.38;;;13.99;nan
62800;BME280;48842;51.046;13.796;2023-04-15T12:59:18;99501.97;;;14.10;nan
62800;BME280;48842;51.046;13.796;2023-04-15T13:01:44;99503.56;;;14.18;nan
62800;BME280;48842;51.046;13.796;2023-04-15T13:04:09;99511.34;;;14.24;nan
62800;BME280;48842;51.046;13.796;2023-04-15T13:06:35;99517.50;;;14.23;nan
62800;BME280;48842;51.046;13.796;2023-04-15T13:09:01;99521.88;;;14.24;nan
62800;BME280;48842;51.046;13.796;2023-04-15T13:11:28;99518.28;;;14.26;nan
62800;BME280;48842;51.046;13.796;2023-04-15T13:13:55;99521.66;;;14.31;nan
62800;BME280;48842;51.046;13.796;2023-04-15T13:16:21;99517.19;;;14.35;nan